Time;durP1;ratioP1;P1;durP2;ratioP2;P2;SDS_P1;SDS_P2;PMS_P1;PMS_P2;Temp;Humidity;BMP_temperature;BMP_pressure;BME280_temperature;BME280_humidity;BME280_pressure;Samples;Min_cycle;Max_cycle;Signal;HPM_P1;HPM_P2
2023/09/27 00:01:17;;;;;;;0.50;0.50;;;12.70;99.90;;;;;;5113777;28;20618;-75
2023/09/27 00:03:43;;;;;;;0.50;0.50;;;12.70;99.90;;;;;;5087202;28;20199;-75
2023/09/27 00:06:09;;;;;;;0.63;0.63;;;12.70;99.90;;;;;;5113871;28;20188;-75
2023/09/27 00:08:35;;;;;;;0.60;0.60;;;12.60;99.90;;;;;;5113308;28;20591;-75
2023/09/27 00:11:02;;;;;;;1.20;1.10;;;12.60;99.90;;;;;;5113291;28;20271;-75
2023/09/27 00:13:28;;;;;;;0.70;0.70;;;12.60;99.90;;;;;;5107366;27;20199;-75
2023/09/27 00:15:53;;;;;;;1.52;1.17;;;12.50;99.90;;;;;;5115261;27;20541;-74
2023/09/27 00:18:19;;;;;;;0.70;0.70;;;12.50;99.90;;;;;;5110553;27;20215;-75
2023/09/27 00:20:45;;;;;;;0.82;0.80;;;12.50;99.90;;;;;;5123819;27;20191;-74
2023/09/27 00:23:10;;;;;;;0.80;0.80;;;12.40;99.90;;;;;;5133847;27;20727;-75
2023/09/27 00:25:36;;;;;;;0.98;0.90;;;12.40;99.90;;;;;;5133540;27;20187;-75
2023/09/27 00:28:02;;;;;;;0.52;0.52;;;12.30;99.90;;;;;;5114659;27;20585;-74
2023/09/27 00:30:28;;;;;;;0.52;0.52;;;12.30;99.90;;;;;;5114960;27;20191;-74
2023/09/27 00:32:55;;;;;;;0.70;0.70;;;12.30;99.90;;;;;;5133488;27;20191;-74
2023/09/27 00:35:22;;;;;;;0.80;0.80;;;12.30;99.90;;;;;;5133422;27;20187;-75
2023/09/27 00:37:49;;;;;;;0.77;0.77;;;12.20;99.90;;;;;;5114942;27;20206;-75
2023/09/27 00:40:18;;;;;;;0.80;0.80;;;12.20;99.90;;;;;;5133521;27;20658;-74
2023/09/27 00:42:44;;;;;;;0.90;0.90;;;12.10;99.90;;;;;;5137252;27;20237;-75
2023/09/27 00:45:10;;;;;;;0.75;0.75;;;12.10;99.90;;;;;;5149162;27;20711;-75
2023/09/27 00:47:37;;;;;;;0.55;0.55;;;12.00;99.90;;;;;;5096774;28;20554;-75
2023/09/27 00:50:03;;;;;;;0.68;0.68;;;12.00;99.90;;;;;;5087232;28;20732;-75
2023/09/27 00:52:30;;;;;;;0.50;0.50;;;12.00;99.90;;;;;;5072021;28;20712;-75
2023/09/27 00:54:57;;;;;;;0.60;0.60;;;12.00;99.90;;;;;;5072120;28;20205;-75
2023/09/27 00:57:23;;;;;;;0.50;0.50;;;11.90;99.90;;;;;;5071911;28;20196;-75
2023/09/27 00:59:49;;;;;;;0.73;0.73;;;11.90;99.90;;;;;;5092396;28;20270;-75
2023/09/27 01:02:16;;;;;;;0.70;0.70;;;11.90;99.90;;;;;;5092306;28;20262;-74
2023/09/27 01:04:45;;;;;;;0.50;0.50;;;11.80;99.90;;;;;;5092222;28;20192;-75
2023/09/27 01:07:13;;;;;;;0.60;0.60;;;11.80;99.90;;;;;;5092270;28;20241;-75
2023/09/27 01:09:45;;;;;;;0.70;0.70;;;11.80;99.90;;;;;;5092219;28;20544;-75
2023/09/27 01:12:11;;;;;;;1.02;0.93;;;11.80;99.90;;;;;;5073772;28;20188;-75
2023/09/27 01:14:37;;;;;;;0.50;0.50;;;11.80;99.90;;;;;;5091912;28;20603;-75
2023/09/27 01:17:09;;;;;;;0.70;0.70;;;11.80;99.90;;;;;;5101947;28;20270;-75
2023/09/27 01:19:35;;;;;;;0.60;0.60;;;11.70;99.90;;;;;;5112351;28;20692;-75
2023/09/27 01:22:01;;;;;;;1.98;1.15;;;11.80;99.90;;;;;;5113500;28;20203;-75
2023/09/27 01:24:29;;;;;;;0.95;0.85;;;11.80;99.90;;;;;;5116293;28;20237;-75
2023/09/27 01:26:56;;;;;;;0.50;0.50;;;12.00;99.90;;;;;;5116114;28;20198;-75
2023/09/27 01:29:21;;;;;;;0.60;0.60;;;12.00;99.90;;;;;;5115980;28;20191;-75
2023/09/27 01:31:47;;;;;;;0.70;0.70;;;12.10;99.90;;;;;;5116522;28;20241;-75
2023/09/27 01:34:12;;;;;;;0.55;0.55;;;12.20;99.90;;;;;;5116439;28;20593;-75
2023/09/27 01:36:38;;;;;;;0.60;0.60;;;12.20;99.90;;;;;;5116245;28;20662;-75
2023/09/27 01:39:06;;;;;;;0.85;0.85;;;12.30;99.90;;;;;;5098125;28;20202;-75
2023/09/27 01:41:32;;;;;;;0.70;0.70;;;12.30;99.90;;;;;;5116051;28;20195;-75
2023/09/27 01:43:58;;;;;;;1.10;0.93;;;12.30;99.90;;;;;;5115892;28;20199;-75
2023/09/27 01:46:23;;;;;;;0.60;0.60;;;12.30;99.90;;;;;;5128661;27;20315;-75
2023/09/27 01:48:50;;;;;;;0.50;0.50;;;12.30;99.90;;;;;;5136720;27;20661;-75
2023/09/27 01:51:16;;;;;;;0.50;0.50;;;12.30;99.90;;;;;;5136789;27;20766;-75
2023/09/27 01:53:42;;;;;;;0.63;0.63;;;12.30;99.90;;;;;;5136782;27;20285;-75
2023/09/27 01:56:07;;;;;;;0.68;0.65;;;12.20;99.90;;;;;;5136717;27;20271;-75
2023/09/27 01:58:33;;;;;;;0.60;0.60;;;12.10;99.90;;;;;;5136459;27;20706;-74
2023/09/27 02:00:59;;;;;;;0.50;0.50;;;12.10;99.90;;;;;;5118093;27;20611;-76
2023/09/27 02:03:24;;;;;;;0.52;0.52;;;12.10;99.90;;;;;;5117805;27;20301;-74
2023/09/27 02:05:52;;;;;;;0.63;0.63;;;12.10;99.90;;;;;;5136334;27;20194;-75
2023/09/27 02:08:18;;;;;;;1.00;1.00;;;12.10;99.90;;;;;;5117959;27;20210;-74
2023/09/27 02:10:43;;;;;;;0.75;0.75;;;12.10;99.90;;;;;;5116778;27;20199;-75
2023/09/27 02:13:09;;;;;;;0.52;0.52;;;12.10;99.90;;;;;;5107056;27;20213;-75
2023/09/27 02:15:34;;;;;;;0.73;0.73;;;12.10;99.90;;;;;;5117756;27;20568;-75
2023/09/27 02:18:00;;;;;;;0.43;0.43;;;12.00;99.90;;;;;;5117685;27;20221;-75
2023/09/27 02:20:26;;;;;;;0.50;0.50;;;12.00;99.90;;;;;;5117388;27;20203;-75
2023/09/27 02:22:54;;;;;;;0.70;0.70;;;12.00;99.90;;;;;;5117548;27;20214;-76
2023/09/27 02:25:20;;;;;;;0.60;0.60;;;12.00;99.90;;;;;;5136047;27;20277;-75
2023/09/27 02:27:46;;;;;;;0.52;0.52;;;12.00;99.90;;;;;;5117567;27;20274;-75
2023/09/27 02:30:12;;;;;;;0.60;0.60;;;12.00;99.90;;;;;;5117533;27;20198;-75
2023/09/27 02:32:42;;;;;;;0.60;0.60;;;12.00;99.90;;;;;;5135686;27;20190;-72
2023/09/27 02:35:09;;;;;;;0.50;0.50;;;12.00;99.90;;;;;;5134998;27;20301;-72
2023/09/27 02:37:36;;;;;;;0.77;0.77;;;12.00;99.90;;;;;;5135525;27;20199;-72
2023/09/27 02:40:05;;;;;;;0.60;0.60;;;11.90;99.90;;;;;;5135425;27;20537;-73
2023/09/27 02:42:30;;;;;;;0.60;0.60;;;11.90;99.90;;;;;;5135078;27;20251;-71
2023/09/27 02:44:56;;;;;;;0.70;0.70;;;11.80;99.90;;;;;;5117134;27;20286;-72
2023/09/27 02:47:22;;;;;;;0.50;0.50;;;11.80;99.90;;;;;;5135608;27;20209;-71
2023/09/27 02:49:48;;;;;;;0.70;0.70;;;11.70;99.90;;;;;;5135521;27;20195;-71
2023/09/27 02:52:13;;;;;;;0.82;0.82;;;11.80;99.90;;;;;;5135554;27;20190;-73
2023/09/27 02:54:39;;;;;;;0.70;0.70;;;11.80;99.90;;;;;;5135466;27;20251;-73
2023/09/27 02:57:05;;;;;;;0.63;0.63;;;11.80;99.90;;;;;;5135346;27;20201;-72
2023/09/27 02:59:31;;;;;;;1.85;1.40;;;11.80;99.90;;;;;;5135220;27;20605;-73
2023/09/27 03:01:56;;;;;;;0.68;0.68;;;11.80;99.90;;;;;;5107248;27;20730;-75
2023/09/27 03:04:22;;;;;;;0.70;0.70;;;11.70;99.90;;;;;;5134992;27;20195;-76
2023/09/27 03:06:49;;;;;;;0.82;0.80;;;11.70;99.90;;;;;;5134905;27;20187;-75
2023/09/27 03:09:15;;;;;;;0.73;0.73;;;11.70;99.90;;;;;;5135066;27;20194;-75
2023/09/27 03:11:42;;;;;;;0.80;0.80;;;11.70;99.90;;;;;;5135024;27;20657;-75
2023/09/27 03:14:08;;;;;;;0.70;0.70;;;11.60;99.90;;;;;;5135051;27;20273;-75
2023/09/27 03:16:34;;;;;;;0.88;0.88;;;11.60;99.90;;;;;;5135037;27;20263;-75
2023/09/27 03:19:00;;;;;;;0.60;0.60;;;11.60;99.90;;;;;;5135025;27;20183;-75
2023/09/27 03:21:29;;;;;;;0.68;0.68;;;11.60;99.90;;;;;;5134606;27;20190;-74
2023/09/27 03:23:55;;;;;;;0.50;0.50;;;11.50;99.90;;;;;;5135062;27;20668;-75
2023/09/27 03:26:24;;;;;;;0.50;0.50;;;11.50;99.90;;;;;;5134648;27;20191;-74
2023/09/27 03:28:51;;;;;;;0.50;0.50;;;11.50;99.90;;;;;;5116247;27;20634;-75
2023/09/27 03:31:17;;;;;;;0.63;0.63;;;11.50;99.90;;;;;;5116450;27;20195;-75
2023/09/27 03:33:42;;;;;;;0.63;0.63;;;11.40;99.90;;;;;;5134602;27;20285;-75
2023/09/27 03:36:08;;;;;;;0.77;0.73;;;11.40;99.90;;;;;;5115993;27;20345;-75
2023/09/27 03:38:34;;;;;;;0.70;0.70;;;11.40;99.90;;;;;;5130286;27;20199;-75
2023/09/27 03:41:00;;;;;;;0.80;0.80;;;11.40;99.90;;;;;;5114105;28;20603;-75
2023/09/27 03:43:25;;;;;;;0.95;0.82;;;11.40;99.90;;;;;;5116935;27;20238;-75
2023/09/27 03:45:52;;;;;;;1.02;0.93;;;11.40;99.90;;;;;;5142218;27;20714;-75
2023/09/27 03:48:19;;;;;;;0.52;0.52;;;11.30;99.90;;;;;;5136194;27;20274;-75
2023/09/27 03:50:45;;;;;;;0.80;0.80;;;11.40;99.90;;;;;;5155088;27;20213;-75
2023/09/27 03:53:11;;;;;;;0.60;0.60;;;11.40;99.90;;;;;;5155100;27;20562;-76
2023/09/27 03:55:36;;;;;;;1.00;0.90;;;11.40;99.90;;;;;;5155000;27;20200;-75
2023/09/27 03:58:02;;;;;;;0.60;0.60;;;11.40;99.90;;;;;;5154999;27;20186;-75
2023/09/27 04:00:28;;;;;;;0.90;0.90;;;11.50;99.90;;;;;;5154604;27;20709;-75
2023/09/27 04:02:54;;;;;;;1.05;0.73;;;11.50;99.90;;;;;;5137772;27;20294;-75
2023/09/27 04:05:23;;;;;;;0.75;0.75;;;11.50;99.90;;;;;;5115290;27;20197;-75
2023/09/27 04:07:49;;;;;;;0.60;0.60;;;11.50;99.90;;;;;;5133975;27;20239;-75
2023/09/27 04:10:17;;;;;;;0.52;0.52;;;11.50;99.90;;;;;;5133952;27;20274;-75
2023/09/27 04:12:43;;;;;;;0.60;0.60;;;11.50;99.90;;;;;;5133996;27;20190;-75
2023/09/27 04:15:09;;;;;;;0.68;0.68;;;11.50;99.90;;;;;;5115733;27;20201;-75
2023/09/27 04:17:36;;;;;;;7.25;1.33;;;11.60;99.90;;;;;;5115321;27;20222;-75
2023/09/27 04:20:14;;;;;;;0.52;0.52;;;11.60;99.90;;;;;;5115344;27;20194;-75
2023/09/27 04:22:42;;;;;;;0.73;0.73;;;11.60;99.90;;;;;;5115230;27;20343;-75
2023/09/27 04:25:08;;;;;;;0.95;0.95;;;11.60;99.90;;;;;;5133781;27;20179;-75
2023/09/27 04:27:34;;;;;;;0.60;0.60;;;11.60;99.90;;;;;;5115167;27;20251;-75
2023/09/27 04:29:59;;;;;;;1.85;1.45;;;11.70;99.90;;;;;;5133485;27;20832;-74
2023/09/27 04:32:25;;;;;;;0.50;0.50;;;11.70;99.90;;;;;;5115017;27;20628;-75
2023/09/27 04:34:51;;;;;;;0.90;0.85;;;11.80;99.90;;;;;;5133426;27;20236;-74
2023/09/27 04:37:17;;;;;;;0.70;0.70;;;11.80;99.90;;;;;;5115111;27;20202;-74
2023/09/27 04:39:43;;;;;;;0.60;0.60;;;11.80;99.90;;;;;;5133300;27;20512;-75
2023/09/27 04:42:08;;;;;;;0.70;0.70;;;11.90;99.90;;;;;;5134649;27;20199;-74
2023/09/27 04:44:34;;;;;;;0.60;0.60;;;11.90;99.90;;;;;;5135339;27;20190;-75
2023/09/27 04:46:59;;;;;;;0.70;0.70;;;11.90;99.90;;;;;;5135380;27;20237;-74
2023/09/27 04:49:25;;;;;;;0.70;0.70;;;12.00;99.90;;;;;;5140476;27;20642;-74
2023/09/27 04:51:51;;;;;;;0.75;0.75;;;12.00;99.90;;;;;;5133270;27;20194;-74
2023/09/27 04:54:17;;;;;;;1.00;0.90;;;12.10;99.90;;;;;;5115047;27;20199;-75
2023/09/27 04:56:42;;;;;;;0.88;0.88;;;12.20;99.90;;;;;;5132472;27;20533;-75
2023/09/27 04:59:08;;;;;;;0.75;0.75;;;12.30;99.90;;;;;;5114590;27;20207;-75
2023/09/27 05:01:34;;;;;;;0.70;0.70;;;12.50;99.90;;;;;;5114782;27;20222;-75
2023/09/27 05:04:00;;;;;;;0.60;0.60;;;12.60;99.90;;;;;;5114876;27;20191;-75
2023/09/27 05:06:25;;;;;;;0.55;0.55;;;12.80;99.90;;;;;;5114526;27;20722;-74
2023/09/27 05:08:51;;;;;;;0.80;0.80;;;12.90;99.90;;;;;;5133679;27;20183;-74
2023/09/27 05:11:20;;;;;;;0.60;0.60;;;13.00;99.90;;;;;;5133183;28;20212;-74
2023/09/27 05:13:48;;;;;;;0.77;0.77;;;13.00;99.90;;;;;;5133164;28;20202;-74
2023/09/27 05:16:18;;;;;;;0.80;0.80;;;13.10;99.90;;;;;;5134460;28;20191;-75
2023/09/27 05:18:44;;;;;;;0.60;0.60;;;13.20;99.90;;;;;;5133428;28;20218;-74
2023/09/27 05:21:10;;;;;;;0.80;0.80;;;13.20;99.90;;;;;;5133342;28;20653;-75
2023/09/27 05:23:35;;;;;;;0.63;0.63;;;13.30;99.90;;;;;;5133062;28;20203;-74
2023/09/27 05:26:01;;;;;;;1.05;1.05;;;13.30;99.90;;;;;;5114693;28;20190;-74
2023/09/27 05:28:28;;;;;;;8.65;1.60;;;13.30;99.90;;;;;;5114203;28;20202;-75
2023/09/27 05:30:54;;;;;;;1.25;1.15;;;13.30;99.90;;;;;;5131300;28;20227;-74
2023/09/27 05:33:19;;;;;;;0.60;0.60;;;13.30;99.90;;;;;;5112312;28;20195;-75
2023/09/27 05:35:50;;;;;;;0.50;0.50;;;13.40;99.90;;;;;;5094247;28;20200;-74
2023/09/27 05:38:16;;;;;;;0.95;0.93;;;13.40;99.90;;;;;;5094275;28;20195;-75
2023/09/27 05:40:42;;;;;;;0.75;0.75;;;13.40;99.90;;;;;;5094210;28;20199;-74
2023/09/27 05:43:10;;;;;;;0.57;0.57;;;13.50;99.90;;;;;;5113664;27;20201;-75
2023/09/27 05:45:36;;;;;;;0.82;0.82;;;13.60;99.90;;;;;;5134893;27;20369;-74
2023/09/27 05:48:02;;;;;;;0.80;0.80;;;13.70;99.90;;;;;;5153578;27;20277;-74
2023/09/27 05:50:27;;;;;;;1.45;1.30;;;13.80;99.90;;;;;;5153658;27;20197;-74
2023/09/27 05:52:53;;;;;;;1.52;1.35;;;13.80;99.90;;;;;;5153674;27;20213;-75
2023/09/27 05:55:20;;;;;;;0.85;0.85;;;13.80;99.90;;;;;;5103031;28;20202;-74
2023/09/27 05:57:46;;;;;;;1.13;1.02;;;13.90;99.90;;;;;;5100394;28;20195;-74
2023/09/27 06:00:26;;;;;;;1.02;0.95;;;13.90;99.90;;;;;;5132983;28;20187;-74
2023/09/27 06:02:52;;;;;;;0.80;0.80;;;13.90;99.90;;;;;;5116628;28;20229;-74
2023/09/27 06:05:18;;;;;;;3.63;1.77;;;13.90;99.90;;;;;;5114346;28;20287;-74
2023/09/27 06:07:44;;;;;;;1.27;1.15;;;14.00;99.90;;;;;;5133158;27;20218;-74
2023/09/27 06:10:10;;;;;;;0.80;0.80;;;14.00;99.90;;;;;;5118365;27;20186;-74
2023/09/27 06:12:35;;;;;;;0.60;0.60;;;14.00;99.90;;;;;;5136419;27;21830;-75
2023/09/27 06:15:01;;;;;;;1.05;0.95;;;14.10;99.90;;;;;;5118397;27;20705;-75
2023/09/27 06:17:27;;;;;;;1.33;1.17;;;14.10;99.90;;;;;;5117718;27;20657;-75
2023/09/27 06:19:52;;;;;;;1.30;1.20;;;14.10;99.90;;;;;;5135991;27;20194;-75
2023/09/27 06:22:22;;;;;;;1.35;1.15;;;14.10;99.90;;;;;;5136031;27;20207;-75
2023/09/27 06:24:48;;;;;;;1.30;1.00;;;14.20;99.90;;;;;;5135959;27;20240;-74
2023/09/27 06:27:16;;;;;;;0.85;0.82;;;14.30;99.90;;;;;;5115133;27;20203;-74
2023/09/27 06:29:42;;;;;;;1.65;1.55;;;14.30;99.90;;;;;;5097056;28;20715;-75
2023/09/27 06:32:10;;;;;;;0.80;0.80;;;14.50;99.90;;;;;;5097312;28;20299;-72
2023/09/27 06:34:36;;;;;;;1.90;0.88;;;14.60;99.90;;;;;;5096894;28;20201;-72
2023/09/27 06:37:02;;;;;;;1.38;1.27;;;14.60;99.90;;;;;;5115267;28;20278;-72
2023/09/27 06:39:27;;;;;;;2.10;1.33;;;14.70;99.90;;;;;;5115014;28;20264;-72
2023/09/27 06:41:54;;;;;;;3.10;1.95;;;14.80;99.90;;;;;;5115040;28;20723;-72
2023/09/27 06:44:20;;;;;;;0.63;0.63;;;14.80;99.90;;;;;;5155472;27;20186;-73
2023/09/27 06:46:49;;;;;;;1.27;1.17;;;14.90;99.90;;;;;;5147756;27;20622;-72
2023/09/27 06:49:16;;;;;;;1.08;0.93;;;14.90;99.90;;;;;;5135518;27;20556;-72
2023/09/27 06:51:43;;;;;;;1.10;1.10;;;15.00;99.90;;;;;;5135087;27;20210;-72
2023/09/27 06:54:09;;;;;;;6.03;1.55;;;15.00;99.90;;;;;;5135476;27;20187;-72
2023/09/27 06:56:35;;;;;;;0.85;0.85;;;15.00;99.90;;;;;;5116890;27;20199;-72
2023/09/27 06:59:00;;;;;;;2.75;1.75;;;15.00;99.90;;;;;;5116908;27;20201;-72
2023/09/27 07:01:26;;;;;;;0.75;0.75;;;15.10;99.90;;;;;;5135311;27;20188;-72
2023/09/27 07:03:52;;;;;;;1.50;1.40;;;15.20;99.90;;;;;;5135224;27;20226;-72
2023/09/27 07:06:18;;;;;;;1.00;0.90;;;15.20;99.90;;;;;;5135321;27;20198;-72
2023/09/27 07:08:47;;;;;;;1.45;1.10;;;15.20;99.90;;;;;;5116502;27;20187;-72
2023/09/27 07:11:13;;;;;;;1.95;1.35;;;15.20;99.90;;;;;;5135406;27;20217;-73
2023/09/27 07:13:39;;;;;;;1.25;1.17;;;15.20;99.90;;;;;;5134957;27;20217;-72
2023/09/27 07:16:26;;;;;;;2.10;1.30;;;15.20;99.90;;;;;;5135021;27;20559;-72
2023/09/27 07:18:55;;;;;;;1.48;1.38;;;15.30;99.90;;;;;;5134644;27;20245;-72
2023/09/27 07:21:22;;;;;;;1.60;1.00;;;15.30;99.90;;;;;;5115733;27;20255;-71
2023/09/27 07:23:49;;;;;;;1.40;1.30;;;15.30;99.90;;;;;;5129442;27;20670;-71
2023/09/27 07:26:16;;;;;;;5.47;1.08;;;15.40;99.90;;;;;;5114257;28;20190;-71
2023/09/27 07:28:42;;;;;;;1.30;1.10;;;15.40;99.90;;;;;;5114049;28;20240;-71
2023/09/27 07:31:08;;;;;;;1.52;1.42;;;15.50;99.90;;;;;;5114201;28;20192;-71
2023/09/27 07:33:33;;;;;;;0.80;0.80;;;15.60;99.90;;;;;;5114112;28;20270;-71
2023/09/27 07:35:59;;;;;;;0.90;0.90;;;15.60;99.90;;;;;;5095674;28;20256;-72
2023/09/27 07:38:26;;;;;;;1.55;1.45;;;15.70;99.90;;;;;;5113903;28;20192;-71
2023/09/27 07:40:52;;;;;;;2.30;1.60;;;15.70;99.90;;;;;;5113932;28;20192;-72
2023/09/27 07:43:18;;;;;;;0.88;0.88;;;15.90;99.90;;;;;;5136488;27;20194;-71
2023/09/27 07:45:46;;;;;;;0.73;0.73;;;16.00;99.90;;;;;;5154801;27;20672;-72
2023/09/27 07:48:12;;;;;;;1.75;1.40;;;16.00;99.90;;;;;;5135588;27;20642;-71
2023/09/27 07:50:39;;;;;;;1.48;1.25;;;16.00;99.90;;;;;;5134000;27;20199;-71
2023/09/27 07:53:08;;;;;;;1.15;0.90;;;16.20;99.90;;;;;;5134202;27;20217;-71
2023/09/27 07:55:50;;;;;;;1.77;1.67;;;16.20;99.90;;;;;;5134304;27;20585;-71
2023/09/27 07:58:19;;;;;;;2.42;1.88;;;16.20;99.90;;;;;;5134183;27;20183;-72
2023/09/27 08:00:44;;;;;;;1.17;1.15;;;16.20;99.90;;;;;;5134180;27;20665;-71
2023/09/27 08:03:10;;;;;;;0.80;0.80;;;16.10;99.90;;;;;;5133997;27;20206;-72
2023/09/27 08:05:45;;;;;;;1.48;1.30;;;16.00;99.90;;;;;;5133837;27;20635;-71
2023/09/27 08:08:12;;;;;;;2.22;1.58;;;15.90;99.90;;;;;;5134000;27;20190;-71
2023/09/27 08:10:43;;;;;;;1.20;1.10;;;15.90;99.90;;;;;;5133933;27;20274;-72
2023/09/27 08:13:18;;;;;;;1.08;1.08;;;15.80;99.90;;;;;;5133874;27;20276;-70
2023/09/27 08:15:47;;;;;;;1.27;0.82;;;15.80;99.90;;;;;;5133644;27;20273;-71
2023/09/27 08:18:13;;;;;;;1.13;0.90;;;16.00;99.90;;;;;;5115460;27;20190;-71
2023/09/27 08:20:39;;;;;;;1.48;1.02;;;16.10;99.90;;;;;;5134121;27;20212;-71
2023/09/27 08:23:05;;;;;;;1.85;1.65;;;16.30;99.90;;;;;;5133721;27;20255;-71
2023/09/27 08:25:30;;;;;;;1.27;1.17;;;16.30;99.90;;;;;;5133579;27;20234;-71
2023/09/27 08:27:56;;;;;;;1.15;1.13;;;16.30;99.90;;;;;;5133653;27;20240;-71
2023/09/27 08:30:22;;;;;;;1.10;1.05;;;16.30;99.90;;;;;;5133183;27;20194;-71
2023/09/27 08:32:49;;;;;;;3.28;1.15;;;16.20;99.90;;;;;;5115211;27;20562;-71
2023/09/27 08:35:16;;;;;;;1.95;1.63;;;16.10;99.90;;;;;;5133414;27;20186;-70
2023/09/27 08:37:41;;;;;;;1.15;1.05;;;16.00;99.90;;;;;;5133307;27;20201;-72
2023/09/27 08:40:12;;;;;;;0.75;0.75;;;16.00;99.90;;;;;;5133547;27;20273;-70
2023/09/27 08:42:39;;;;;;;1.33;1.23;;;15.90;99.90;;;;;;5131050;27;20311;-70
2023/09/27 08:45:12;;;;;;;4.13;1.10;;;15.90;99.90;;;;;;5094163;28;20227;-70
2023/09/27 08:47:41;;;;;;;0.98;0.85;;;15.80;99.90;;;;;;5109952;27;20222;-70
2023/09/27 08:50:10;;;;;;;1.88;1.42;;;15.80;99.90;;;;;;5133169;27;20269;-70
2023/09/27 08:52:36;;;;;;;1.75;1.65;;;16.00;99.90;;;;;;5133560;27;20194;-70
2023/09/27 08:55:03;;;;;;;0.93;0.93;;;16.30;99.90;;;;;;5133137;27;20698;-71
2023/09/27 08:57:30;;;;;;;1.48;1.38;;;16.50;99.90;;;;;;5133201;27;20247;-71
2023/09/27 08:59:55;;;;;;;1.30;1.23;;;16.80;99.90;;;;;;5132885;27;20605;-71
2023/09/27 09:02:24;;;;;;;1.25;1.10;;;17.00;99.90;;;;;;5132941;27;20206;-71
2023/09/27 09:04:50;;;;;;;0.98;0.98;;;17.00;99.90;;;;;;5133111;27;20193;-71
2023/09/27 09:07:18;;;;;;;1.30;1.20;;;16.90;99.90;;;;;;5132985;27;20191;-71
2023/09/27 09:09:46;;;;;;;0.93;0.90;;;16.80;99.90;;;;;;5132999;27;20584;-71
2023/09/27 09:12:12;;;;;;;1.10;1.00;;;16.70;99.90;;;;;;5132918;27;20198;-71
2023/09/27 09:14:49;;;;;;;0.80;0.80;;;16.60;99.90;;;;;;5132782;27;20198;-71
2023/09/27 09:17:18;;;;;;;0.82;0.77;;;16.50;99.90;;;;;;5119669;28;20259;-71
2023/09/27 09:19:43;;;;;;;1.98;1.63;;;16.40;99.90;;;;;;5112377;28;20304;-71
2023/09/27 09:22:11;;;;;;;1.58;1.33;;;16.40;99.90;;;;;;5112341;28;20282;-71
2023/09/27 09:24:43;;;;;;;1.08;1.08;;;16.30;99.90;;;;;;5112226;28;20689;-71
2023/09/27 09:27:10;;;;;;;1.17;1.08;;;16.20;99.90;;;;;;5094129;28;20187;-71
2023/09/27 09:29:48;;;;;;;4.05;1.88;;;16.20;99.90;;;;;;5122983;28;20289;-70
2023/09/27 09:32:20;;;;;;;1.23;1.13;;;16.20;99.90;;;;;;5114344;28;20242;-74
2023/09/27 09:34:50;;;;;;;0.55;0.55;;;16.10;99.90;;;;;;5114238;28;20190;-73
2023/09/27 09:37:18;;;;;;;1.85;1.70;;;16.10;99.90;;;;;;5114295;28;20233;-73
2023/09/27 09:39:46;;;;;;;2.42;1.98;;;16.00;99.90;;;;;;5121529;28;20655;-72
2023/09/27 09:42:13;;;;;;;1.40;1.30;;;16.00;99.90;;;;;;5112767;27;20571;-72
2023/09/27 09:44:39;;;;;;;0.55;0.55;;;16.00;99.90;;;;;;5116132;28;20252;-72
2023/09/27 09:47:10;;;;;;;0.95;0.95;;;16.00;99.90;;;;;;5116350;28;20778;-73
2023/09/27 09:49:36;;;;;;;0.93;0.93;;;15.80;99.90;;;;;;5116204;28;20191;-73
2023/09/27 09:52:06;;;;;;;1.02;0.98;;;15.80;99.90;;;;;;5116026;28;20699;-74
2023/09/27 09:54:46;;;;;;;2.40;1.23;;;15.70;99.90;;;;;;5116024;28;20199;-74
2023/09/27 09:57:19;;;;;;;2.42;1.55;;;15.70;99.90;;;;;;5116209;28;20703;-74
2023/09/27 10:00:11;;;;;;;1.40;1.30;;;15.70;99.90;;;;;;5097949;28;20200;-74
2023/09/27 10:02:46;;;;;;;2.10;1.23;;;15.70;99.90;;;;;;5116151;28;20207;-72
2023/09/27 10:05:14;;;;;;;0.80;0.80;;;15.70;99.90;;;;;;5116038;28;20270;-71
2023/09/27 10:07:43;;;;;;;0.95;0.88;;;15.70;99.90;;;;;;5097493;28;20188;-71
2023/09/27 10:10:09;;;;;;;0.73;0.73;;;15.70;99.90;;;;;;5132136;27;20207;-71
2023/09/27 10:12:35;;;;;;;1.63;1.52;;;15.80;99.90;;;;;;5136009;27;20285;-71
2023/09/27 10:15:07;;;;;;;1.13;1.00;;;15.80;99.90;;;;;;5136400;27;20652;-71
2023/09/27 10:17:33;;;;;;;1.15;1.15;;;15.80;99.90;;;;;;5136106;27;20636;-71
2023/09/27 10:20:14;;;;;;;1.75;1.48;;;15.80;99.90;;;;;;5117549;27;20198;-71
2023/09/27 10:22:41;;;;;;;1.15;1.13;;;15.80;99.90;;;;;;5117475;27;20210;-71
2023/09/27 10:25:28;;;;;;;1.80;1.70;;;15.80;99.90;;;;;;5135990;27;20195;-71
2023/09/27 10:28:01;;;;;;;1.60;1.48;;;15.80;99.90;;;;;;5135938;27;20191;-70
2023/09/27 10:30:40;;;;;;;0.93;0.90;;;15.80;99.90;;;;;;5135858;27;20602;-71
2023/09/27 10:33:15;;;;;;;0.90;0.90;;;15.80;99.90;;;;;;5117459;27;20205;-71
2023/09/27 10:35:45;;;;;;;1.95;1.83;;;15.80;99.90;;;;;;5127186;27;20238;-71
2023/09/27 10:38:11;;;;;;;1.40;1.30;;;15.90;99.90;;;;;;5115203;28;20221;-71
2023/09/27 10:40:42;;;;;;;3.40;1.80;;;15.90;99.90;;;;;;5134790;27;20195;-71
2023/09/27 10:43:08;;;;;;;8.30;2.58;;;15.90;99.90;;;;;;5135656;27;20237;-71
2023/09/27 10:45:33;;;;;;;1.08;0.98;;;15.90;99.90;;;;;;5141035;27;20221;-72
2023/09/27 10:48:18;;;;;;;5.63;1.95;;;15.90;99.90;;;;;;5156541;27;20305;-72
2023/09/27 10:50:55;;;;;;;4.20;1.95;;;15.90;99.90;;;;;;5156235;27;20190;-71
2023/09/27 10:53:21;;;;;;;3.40;1.85;;;16.00;99.90;;;;;;5137454;27;20202;-71
2023/09/27 10:55:47;;;;;;;1.10;0.90;;;16.00;99.90;;;;;;5155067;27;20189;-71
2023/09/27 10:58:17;;;;;;;2.28;1.88;;;16.20;99.90;;;;;;5156095;27;20198;-73
2023/09/27 11:01:03;;;;;;;0.95;0.93;;;16.40;99.90;;;;;;5156038;27;20664;-72
2023/09/27 11:03:29;;;;;;;0.98;0.98;;;16.60;99.90;;;;;;5155953;27;20296;-71
2023/09/27 11:06:05;;;;;;;1.63;1.33;;;16.60;99.90;;;;;;5124800;27;20310;-71
2023/09/27 11:08:31;;;;;;;1.30;1.20;;;16.70;99.90;;;;;;5116465;27;20229;-71
2023/09/27 11:10:57;;;;;;;1.38;1.27;;;16.80;99.90;;;;;;5135349;27;20226;-71
2023/09/27 11:13:24;;;;;;;2.10;1.08;;;17.00;99.90;;;;;;5135083;27;20285;-75
2023/09/27 11:15:50;;;;;;;1.38;1.27;;;17.00;99.90;;;;;;5135096;27;20604;-75
2023/09/27 11:18:16;;;;;;;2.83;1.70;;;17.00;99.90;;;;;;5134933;27;20191;-75
2023/09/27 11:20:42;;;;;;;1.60;1.50;;;17.10;99.90;;;;;;5135005;27;20198;-75
2023/09/27 11:23:08;;;;;;;1.33;1.23;;;17.00;99.90;;;;;;5116810;27;20302;-76
2023/09/27 11:25:36;;;;;;;3.80;2.05;;;16.90;99.90;;;;;;5134722;27;20269;-76
2023/09/27 11:28:02;;;;;;;1.02;1.02;;;16.90;99.90;;;;;;5134964;27;20273;-75
2023/09/27 11:30:32;;;;;;;1.20;1.15;;;16.80;99.90;;;;;;5134907;27;20596;-75
2023/09/27 11:33:01;;;;;;;1.08;1.08;;;16.70;99.90;;;;;;5134754;27;20278;-76
2023/09/27 11:35:27;;;;;;;1.67;1.55;;;16.80;99.90;;;;;;5134883;27;20191;-76
2023/09/27 11:38:05;;;;;;;7.25;1.73;;;16.80;99.90;;;;;;5134705;27;20635;-75
2023/09/27 11:40:33;;;;;;;2.60;1.38;;;16.80;99.90;;;;;;5134350;27;20191;-75
2023/09/27 11:42:58;;;;;;;1.75;1.65;;;16.80;99.90;;;;;;5143370;27;20202;-76
2023/09/27 11:45:24;;;;;;;3.08;1.77;;;16.70;99.90;;;;;;5154953;27;20256;-75
2023/09/27 11:47:50;;;;;;;1.45;1.33;;;16.70;99.90;;;;;;5136527;27;20202;-75
2023/09/27 11:50:18;;;;;;;3.10;1.45;;;16.70;99.90;;;;;;5155439;27;20560;-76
2023/09/27 11:52:46;;;;;;;1.80;1.17;;;16.80;99.90;;;;;;5136420;27;20338;-76
2023/09/27 11:55:16;;;;;;;1.38;1.27;;;16.90;99.90;;;;;;5136646;27;20198;-76
2023/09/27 11:57:42;;;;;;;2.33;1.48;;;16.90;99.90;;;;;;5154880;27;20212;-76
2023/09/27 12:00:10;;;;;;;1.15;1.08;;;16.90;99.90;;;;;;5155229;27;20537;-76
2023/09/27 12:02:35;;;;;;;2.22;1.88;;;16.80;99.90;;;;;;5120034;27;20207;-76
2023/09/27 12:05:04;;;;;;;1.52;0.98;;;16.80;99.90;;;;;;5111413;27;20557;-76
2023/09/27 12:07:30;;;;;;;5.22;2.38;;;16.80;99.90;;;;;;5133544;27;20193;-76
2023/09/27 12:09:56;;;;;;;1.20;1.13;;;16.70;99.90;;;;;;5134048;27;20187;-75
2023/09/27 12:12:22;;;;;;;1.60;1.50;;;16.70;99.90;;;;;;5115501;27;20190;-76
2023/09/27 12:14:49;;;;;;;2.03;1.67;;;16.80;99.90;;;;;;5134045;27;20269;-76
2023/09/27 12:17:18;;;;;;;2.42;2.00;;;16.90;99.90;;;;;;5134021;27;20183;-75
2023/09/27 12:19:47;;;;;;;1.33;1.23;;;17.20;99.90;;;;;;5133876;27;20202;-76
2023/09/27 12:22:16;;;;;;;1.38;1.27;;;17.40;99.90;;;;;;5134082;27;20207;-75
2023/09/27 12:24:42;;;;;;;2.47;1.35;;;17.50;99.90;;;;;;5122286;27;20654;-76
2023/09/27 12:27:08;;;;;;;2.17;1.73;;;17.60;99.90;;;;;;5113328;28;20263;-76
2023/09/27 12:29:37;;;;;;;1.38;1.27;;;17.70;99.90;;;;;;5112877;28;20252;-75
2023/09/27 12:32:04;;;;;;;3.40;2.55;;;17.80;99.90;;;;;;5124069;27;20281;-76
2023/09/27 12:34:30;;;;;;;2.17;1.83;;;17.90;99.90;;;;;;5133514;27;20195;-75
2023/09/27 12:36:56;;;;;;;1.23;1.05;;;17.90;99.90;;;;;;5133827;27;20665;-76
2023/09/27 12:39:21;;;;;;;1.45;1.15;;;17.90;99.90;;;;;;5133414;27;20198;-76
2023/09/27 12:41:47;;;;;;;1.27;1.05;;;17.90;99.90;;;;;;5133625;27;20187;-75
2023/09/27 12:44:13;;;;;;;2.50;1.63;;;18.00;99.90;;;;;;5152650;27;20190;-76
2023/09/27 12:46:39;;;;;;;1.42;1.30;;;17.90;99.90;;;;;;5153911;27;20279;-76
2023/09/27 12:49:05;;;;;;;4.15;1.63;;;17.80;99.90;;;;;;5154004;27;20193;-76